sensor_id;sensor_type;location;lat;lon;timestamp;pressure;altitude;pressure_sealevel;temperature
82780;BMP280;72511;45.120;20.720;2023-09-30T00:00:09;100800.09;;;16.42
82780;BMP280;72511;45.120;20.720;2023-09-30T00:10:13;100792.66;;;16.33
82780;BMP280;72511;45.120;20.720;2023-09-30T00:20:13;100817.28;;;15.90
82780;BMP280;72511;45.120;20.720;2023-09-30T00:30:14;100821.78;;;15.41
82780;BMP280;72511;45.120;20.720;2023-09-30T00:40:14;100812.00;;;15.10
82780;BMP280;72511;45.120;20.720;2023-09-30T00:50:15;100807.53;;;15.03
82780;BMP280;72511;45.120;20.720;2023-09-30T01:00:16;100815.69;;;15.03
82780;BMP280;72511;45.120;20.720;2023-09-30T01:10:18;100803.53;;;14.95
82780;BMP280;72511;45.120;20.720;2023-09-30T01:20:20;100812.19;;;15.03
82780;BMP280;72511;45.120;20.720;2023-09-30T01:30:21;100817.19;;;15.17
82780;BMP280;72511;45.120;20.720;2023-09-30T01:40:22;100798.66;;;15.12
82780;BMP280;72511;45.120;20.720;2023-09-30T01:50:22;100785.94;;;15.30
82780;BMP280;72511;45.120;20.720;2023-09-30T02:00:23;100787.66;;;15.37
82780;BMP280;72511;45.120;20.720;2023-09-30T02:10:23;100785.84;;;15.34
82780;BMP280;72511;45.120;20.720;2023-09-30T02:20:25;100793.00;;;15.40
82780;BMP280;72511;45.120;20.720;2023-09-30T02:30:26;100785.88;;;15.21
82780;BMP280;72511;45.120;20.720;2023-09-30T02:40:26;100802.56;;;15.23
82780;BMP280;72511;45.120;20.720;2023-09-30T02:50:27;100784.38;;;15.08
82780;BMP280;72511;45.120;20.720;2023-09-30T03:00:28;100788.94;;;14.52
82780;BMP280;72511;45.120;20.720;2023-09-30T03:10:29;100794.72;;;14.41
82780;BMP280;72511;45.120;20.720;2023-09-30T03:20:29;100780.53;;;14.21
82780;BMP280;72511;45.120;20.720;2023-09-30T03:30:30;100776.84;;;14.03
82780;BMP280;72511;45.120;20.720;2023-09-30T03:40:31;100787.28;;;14.17
82780;BMP280;72511;45.120;20.720;2023-09-30T03:50:31;100811.16;;;14.13
82780;BMP280;72511;45.120;20.720;2023-09-30T04:00:32;100796.28;;;13.89
82780;BMP280;72511;45.120;20.720;2023-09-30T04:10:32;100799.06;;;13.73
82780;BMP280;72511;45.120;20.720;2023-09-30T04:20:33;100816.34;;;13.66
82780;BMP280;72511;45.120;20.720;2023-09-30T04:30:33;100818.88;;;13.29
82780;BMP280;72511;45.120;20.720;2023-09-30T04:40:34;100828.66;;;13.26
82780;BMP280;72511;45.120;20.720;2023-09-30T04:50:35;100843.13;;;13.36
82780;BMP280;72511;45.120;20.720;2023-09-30T05:00:35;100839.41;;;13.46
82780;BMP280;72511;45.120;20.720;2023-09-30T05:10:36;100860.44;;;13.74
82780;BMP280;72511;45.120;20.720;2023-09-30T05:20:36;100853.97;;;14.25
82780;BMP280;72511;45.120;20.720;2023-09-30T05:30:37;100869.56;;;17.47
82780;BMP280;72511;45.120;20.720;2023-09-30T05:40:38;100874.19;;;20.02
82780;BMP280;72511;45.120;20.720;2023-09-30T05:50:38;100881.38;;;20.14
82780;BMP280;72511;45.120;20.720;2023-09-30T06:00:40;100880.72;;;21.90
82780;BMP280;72511;45.120;20.720;2023-09-30T06:10:41;100895.72;;;22.56
82780;BMP280;72511;45.120;20.720;2023-09-30T06:20:42;100899.78;;;23.52
82780;BMP280;72511;45.120;20.720;2023-09-30T06:30:42;100921.09;;;24.34
82780;BMP280;72511;45.120;20.720;2023-09-30T06:40:43;100919.63;;;24.90
82780;BMP280;72511;45.120;20.720;2023-09-30T06:50:45;100914.91;;;25.60
82780;BMP280;72511;45.120;20.720;2023-09-30T07:00:52;100931.13;;;26.70
82780;BMP280;72511;45.120;20.720;2023-09-30T07:10:53;100925.31;;;27.55
82780;BMP280;72511;45.120;20.720;2023-09-30T07:20:53;100920.88;;;28.30
82780;BMP280;72511;45.120;20.720;2023-09-30T07:30:55;100934.88;;;28.96
82780;BMP280;72511;45.120;20.720;2023-09-30T07:40:55;100944.03;;;29.38
82780;BMP280;72511;45.120;20.720;2023-09-30T07:50:56;100929.69;;;30.17
82780;BMP280;72511;45.120;20.720;2023-09-30T08:00:57;100938.31;;;30.34
82780;BMP280;72511;45.120;20.720;2023-09-30T08:10:57;100950.41;;;30.87
82780;BMP280;72511;45.120;20.720;2023-09-30T08:20:58;100956.53;;;30.71
82780;BMP280;72511;45.120;20.720;2023-09-30T08:31:03;100953.78;;;30.35
82780;BMP280;72511;45.120;20.720;2023-09-30T08:41:04;100957.47;;;30.30
82780;BMP280;72511;45.120;20.720;2023-09-30T08:51:05;100954.47;;;29.65
82780;BMP280;72511;45.120;20.720;2023-09-30T09:01:10;100953.09;;;28.25
82780;BMP280;72511;45.120;20.720;2023-09-30T09:11:11;100936.19;;;27.84
82780;BMP280;72511;45.120;20.720;2023-09-30T09:31:30;100942.09;;;28.20
82780;BMP280;72511;45.120;20.720;2023-09-30T09:41:31;100918.31;;;28.19
82780;BMP280;72511;45.120;20.720;2023-09-30T09:51:31;100904.09;;;27.96
82780;BMP280;72511;45.120;20.720;2023-09-30T10:01:35;100890.97;;;28.43
82780;BMP280;72511;45.120;20.720;2023-09-30T10:11:38;100898.25;;;28.46
82780;BMP280;72511;45.120;20.720;2023-09-30T10:21:39;100895.16;;;28.83
82780;BMP280;72511;45.120;20.720;2023-09-30T10:31:49;100881.31;;;29.11
82780;BMP280;72511;45.120;20.720;2023-09-30T10:41:51;100882.03;;;29.04
82780;BMP280;72511;45.120;20.720;2023-09-30T10:51:53;100841.88;;;29.07
82780;BMP280;72511;45.120;20.720;2023-09-30T11:01:54;100845.84;;;29.32
82780;BMP280;72511;45.120;20.720;2023-09-30T11:11:54;100841.03;;;28.58
82780;BMP280;72511;45.120;20.720;2023-09-30T11:21:55;100835.81;;;29.16
82780;BMP280;72511;45.120;20.720;2023-09-30T11:31:56;100830.06;;;29.14
82780;BMP280;72511;45.120;20.720;2023-09-30T11:41:57;100811.31;;;29.42
82780;BMP280;72511;45.120;20.720;2023-09-30T11:51:59;100812.31;;;28.30
82780;BMP280;72511;45.120;20.720;2023-09-30T12:02:00;100809.88;;;29.49
82780;BMP280;72511;45.120;20.720;2023-09-30T12:12:00;100793.06;;;29.69
82780;BMP280;72511;45.120;20.720;2023-09-30T12:22:02;100802.53;;;29.38
82780;BMP280;72511;45.120;20.720;2023-09-30T12:32:02;100792.13;;;29.67
82780;BMP280;72511;45.120;20.720;2023-09-30T12:42:03;100763.75;;;29.48
82780;BMP280;72511;45.120;20.720;2023-09-30T12:52:03;100747.00;;;29.83
82780;BMP280;72511;45.120;20.720;2023-09-30T13:02:04;100751.34;;;30.06
82780;BMP280;72511;45.120;20.720;2023-09-30T13:12:06;100749.94;;;30.43
82780;BMP280;72511;45.120;20.720;2023-09-30T13:22:06;100733.50;;;30.09
82780;BMP280;72511;45.120;20.720;2023-09-30T13:32:09;100719.31;;;29.85
82780;BMP280;72511;45.120;20.720;2023-09-30T13:42:09;100731.38;;;29.09
82780;BMP280;72511;45.120;20.720;2023-09-30T13:52:10;100722.00;;;29.27
82780;BMP280;72511;45.120;20.720;2023-09-30T14:02:10;100716.66;;;28.40
82780;BMP280;72511;45.120;20.720;2023-09-30T14:12:11;100719.81;;;28.57
82780;BMP280;72511;45.120;20.720;2023-09-30T14:22:11;100711.78;;;28.74
82780;BMP280;72511;45.120;20.720;2023-09-30T14:32:12;100712.41;;;28.39
82780;BMP280;72511;45.120;20.720;2023-09-30T14:42:13;100712.38;;;27.98
82780;BMP280;72511;45.120;20.720;2023-09-30T14:52:13;100716.78;;;27.68
82780;BMP280;72511;45.120;20.720;2023-09-30T15:02:14;100711.22;;;27.42
82780;BMP280;72511;45.120;20.720;2023-09-30T15:12:14;100714.91;;;26.92
82780;BMP280;72511;45.120;20.720;2023-09-30T15:22:15;100702.06;;;26.64
82780;BMP280;72511;45.120;20.720;2023-09-30T15:32:16;100713.34;;;26.34
82780;BMP280;72511;45.120;20.720;2023-09-30T15:42:16;100715.16;;;25.95
82780;BMP280;72511;45.120;20.720;2023-09-30T15:52:17;100707.13;;;25.49
82780;BMP280;72511;45.120;20.720;2023-09-30T16:02:18;100699.94;;;24.87
82780;BMP280;72511;45.120;20.720;2023-09-30T16:12:18;100716.94;;;24.67
82780;BMP280;72511;45.120;20.720;2023-09-30T16:22:19;100719.69;;;24.27
82780;BMP280;72511;45.120;20.720;2023-09-30T16:32:19;100725.91;;;23.87
82780;BMP280;72511;45.120;20.720;2023-09-30T16:42:20;100727.97;;;23.64
82780;BMP280;72511;45.120;20.720;2023-09-30T16:52:20;100734.56;;;23.12
82780;BMP280;72511;45.120;20.720;2023-09-30T17:02:21;100725.25;;;22.99
82780;BMP280;72511;45.120;20.720;2023-09-30T17:12:21;100741.53;;;22.75
82780;BMP280;72511;45.120;20.720;2023-09-30T17:22:22;100722.94;;;22.53
82780;BMP280;72511;45.120;20.720;2023-09-30T17:32:22;100745.94;;;22.45
82780;BMP280;72511;45.120;20.720;2023-09-30T17:42:23;100752.94;;;22.29
82780;BMP280;72511;45.120;20.720;2023-09-30T17:52:24;100751.47;;;21.92
82780;BMP280;72511;45.120;20.720;2023-09-30T18:02:24;100771.97;;;21.85
82780;BMP280;72511;45.120;20.720;2023-09-30T18:12:25;100773.56;;;21.61
82780;BMP280;72511;45.120;20.720;2023-09-30T18:22:25;100780.56;;;21.62
82780;BMP280;72511;45.120;20.720;2023-09-30T18:32:26;100791.34;;;21.60
82780;BMP280;72511;45.120;20.720;2023-09-30T18:42:26;100787.22;;;21.44
82780;BMP280;72511;45.120;20.720;2023-09-30T18:52:27;100779.09;;;21.35
82780;BMP280;72511;45.120;20.720;2023-09-30T19:02:28;100804.13;;;21.32
82780;BMP280;72511;45.120;20.720;2023-09-30T19:12:28;100806.47;;;21.19
82780;BMP280;72511;45.120;20.720;2023-09-30T19:22:29;100810.22;;;21.22
82780;BMP280;72511;45.120;20.720;2023-09-30T19:32:29;100827.59;;;21.28
82780;BMP280;72511;45.120;20.720;2023-09-30T19:42:30;100825.53;;;21.23
82780;BMP280;72511;45.120;20.720;2023-09-30T19:52:32;100821.94;;;20.91
82780;BMP280;72511;45.120;20.720;2023-09-30T20:02:32;100817.41;;;20.88
82780;BMP280;72511;45.120;20.720;2023-09-30T20:12:33;100812.34;;;20.81
82780;BMP280;72511;45.120;20.720;2023-09-30T20:22:33;100827.94;;;20.90
82780;BMP280;72511;45.120;20.720;2023-09-30T20:32:34;100829.94;;;20.89
82780;BMP280;72511;45.120;20.720;2023-09-30T20:42:35;100825.59;;;20.83
82780;BMP280;72511;45.120;20.720;2023-09-30T20:52:35;100831.03;;;20.77
82780;BMP280;72511;45.120;20.720;2023-09-30T21:02:36;100825.75;;;20.74
82780;BMP280;72511;45.120;20.720;2023-09-30T21:12:36;100802.56;;;20.60
82780;BMP280;72511;45.120;20.720;2023-09-30T21:22:38;100802.03;;;20.56
82780;BMP280;72511;45.120;20.720;2023-09-30T21:32:39;100815.28;;;20.58
82780;BMP280;72511;45.120;20.720;2023-09-30T21:42:39;100817.97;;;20.52
82780;BMP280;72511;45.120;20.720;2023-09-30T21:52:40;100806.75;;;20.36
82780;BMP280;72511;45.120;20.720;2023-09-30T22:02:41;100810.88;;;20.11
82780;BMP280;72511;45.120;20.720;2023-09-30T22:12:43;100820.09;;;19.94
82780;BMP280;72511;45.120;20.720;2023-09-30T22:22:44;100818.34;;;19.47
82780;BMP280;72511;45.120;20.720;2023-09-30T22:32:44;100818.31;;;19.33
82780;BMP280;72511;45.120;20.720;2023-09-30T22:42:45;100839.19;;;19.16
82780;BMP280;72511;45.120;20.720;2023-09-30T22:52:46;100839.44;;;19.03
82780;BMP280;72511;45.120;20.720;2023-09-30T23:02:47;100822.03;;;18.68
82780;BMP280;72511;45.120;20.720;2023-09-30T23:12:48;100823.69;;;18.42
82780;BMP280;72511;45.120;20.720;2023-09-30T23:22:50;100825.09;;;18.38
82780;BMP280;72511;45.120;20.720;2023-09-30T23:32:51;100829.31;;;18.39
82780;BMP280;72511;45.120;20.720;2023-09-30T23:42:52;100832.91;;;18.22
82780;BMP280;72511;45.120;20.720;2023-09-30T23:52:53;100825.38;;;17.99
